createdAt,value
2024-04-22T00:01:46.051Z,-0.55
2024-04-22T00:04:57.021Z,-0.74
2024-04-22T00:07:29.293Z,-0.89
2024-04-22T00:10:03.796Z,-0.85
2024-04-22T00:12:33.312Z,-0.73
2024-04-22T00:15:00.493Z,-0.65
2024-04-22T00:17:28.055Z,-0.70
2024-04-22T00:19:55.668Z,-0.70
2024-04-22T00:22:22.967Z,-0.62
2024-04-22T00:24:53.339Z,-0.58
2024-04-22T00:27:20.729Z,-0.67
2024-04-22T00:29:48.378Z,-0.63
2024-04-22T00:32:15.654Z,-0.67
2024-04-22T00:34:42.990Z,-0.72
2024-04-22T00:37:10.141Z,-0.73
2024-04-22T00:39:37.674Z,-0.69
2024-04-22T00:42:05.277Z,-0.80
2024-04-22T00:44:33.466Z,-0.82
2024-04-22T00:47:00.485Z,-0.99
2024-04-22T00:49:30.051Z,-0.93
2024-04-22T00:51:57.433Z,-0.70
2024-04-22T00:54:24.868Z,-0.85
2024-04-22T00:56:53.097Z,-0.94
2024-04-22T00:59:21.058Z,-0.91
2024-04-22T01:01:48.654Z,-0.95
2024-04-22T01:04:15.832Z,-0.96
2024-04-22T01:06:43.400Z,-0.96
2024-04-22T01:09:10.178Z,-1.05
2024-04-22T01:11:37.816Z,-1.17
2024-04-22T01:14:05.529Z,-1.19
2024-04-22T01:16:33.295Z,-0.87
2024-04-22T01:19:00.666Z,-0.99
2024-04-22T01:21:30.796Z,-1.10
2024-04-22T01:23:57.979Z,-1.13
2024-04-22T01:26:26.589Z,-1.18
2024-04-22T01:28:53.844Z,-1.13
2024-04-22T01:31:21.619Z,-1.13
2024-04-22T01:33:49.093Z,-1.02
2024-04-22T01:36:15.983Z,-0.87
2024-04-22T01:38:43.535Z,-0.83
2024-04-22T01:41:10.439Z,-0.83
2024-04-22T01:43:41.373Z,-0.90
2024-04-22T01:46:09.159Z,-0.82
2024-04-22T01:48:36.819Z,-0.85
2024-04-22T01:51:03.862Z,-0.93
2024-04-22T01:53:31.298Z,-0.93
2024-04-22T01:55:58.785Z,-0.84
2024-04-22T01:58:26.407Z,-0.86
2024-04-22T02:00:53.639Z,-0.89
2024-04-22T02:03:21.428Z,-0.85
2024-04-22T02:05:49.111Z,-0.94
2024-04-22T02:08:16.026Z,-0.98
2024-04-22T02:10:43.645Z,-0.97
2024-04-22T02:13:10.874Z,-0.95
2024-04-22T02:15:38.318Z,-0.83
2024-04-22T02:18:07.000Z,-0.86
2024-04-22T02:20:34.455Z,-0.81
2024-04-22T02:23:02.237Z,-0.76
2024-04-22T02:25:29.742Z,-0.80
2024-04-22T02:27:57.036Z,-0.80
2024-04-22T02:30:24.876Z,-0.80
2024-04-22T02:32:52.534Z,-0.81
2024-04-22T02:35:19.487Z,-0.79
2024-04-22T02:37:46.931Z,-0.83
2024-04-22T02:40:14.080Z,-0.78
2024-04-22T02:42:41.366Z,-0.78
2024-04-22T02:45:10.145Z,-0.84
2024-04-22T02:47:37.841Z,-0.87
2024-04-22T02:50:06.293Z,-0.95
2024-04-22T02:52:33.977Z,-1.03
2024-04-22T02:55:01.160Z,-1.08
2024-04-22T02:57:28.399Z,-1.15
2024-04-22T02:59:55.727Z,-1.29
2024-04-22T03:02:22.755Z,-1.31
2024-04-22T03:04:50.700Z,-1.36
2024-04-22T03:07:18.015Z,-1.27
2024-04-22T03:09:46.063Z,-1.32
2024-04-22T03:12:16.518Z,-1.33
2024-04-22T03:14:44.052Z,-1.38
2024-04-22T03:17:10.934Z,-1.37
2024-04-22T03:19:38.452Z,-1.39
2024-04-22T03:22:05.537Z,-1.43
2024-04-22T03:24:32.470Z,-1.46
2024-04-22T03:26:59.954Z,-1.47
2024-04-22T03:29:26.810Z,-1.47
2024-04-22T03:31:54.511Z,-1.56
2024-04-22T03:34:21.390Z,-1.56
2024-04-22T03:36:48.638Z,-1.68
2024-04-22T03:39:16.291Z,-1.77
2024-04-22T03:41:43.350Z,-1.76
2024-04-22T03:44:13.922Z,-1.77
2024-04-22T03:46:59.463Z,-1.82
2024-04-22T03:49:45.307Z,-1.80
2024-04-22T03:52:12.705Z,-1.75
2024-04-22T03:54:39.958Z,-1.69
2024-04-22T03:57:07.270Z,-1.72
2024-04-22T03:59:34.444Z,-1.67
2024-04-22T04:02:01.401Z,-1.61
2024-04-22T04:04:28.679Z,-1.59
2024-04-22T04:06:55.644Z,-1.48
2024-04-22T04:09:24.371Z,-1.49
2024-04-22T04:11:52.422Z,-1.59
2024-04-22T04:14:20.504Z,-1.80
2024-04-22T04:16:47.510Z,-1.78
2024-04-22T04:19:15.159Z,-1.77
2024-04-22T04:21:42.861Z,-1.82
2024-04-22T04:24:09.976Z,-1.78
2024-04-22T04:26:37.250Z,-1.78
2024-04-22T04:29:06.463Z,-1.72
2024-04-22T04:31:33.988Z,-1.70
2024-04-22T04:34:00.809Z,-1.71
2024-04-22T04:36:27.979Z,-1.72
2024-04-22T04:38:55.246Z,-1.68
2024-04-22T04:41:24.771Z,-1.70
2024-04-22T04:43:51.880Z,-1.71
2024-04-22T04:46:19.797Z,-1.71
2024-04-22T04:48:47.007Z,-1.69
2024-04-22T04:51:13.797Z,-1.77
2024-04-22T04:53:40.856Z,-1.81
2024-04-22T04:56:08.178Z,-1.77
2024-04-22T04:58:35.518Z,-1.80
2024-04-22T05:01:02.408Z,-1.81
2024-04-22T05:03:29.175Z,-1.91
2024-04-22T05:06:03.812Z,-2.00
2024-04-22T05:08:31.477Z,-2.03
2024-04-22T05:11:03.833Z,-1.97
2024-04-22T05:13:31.432Z,-1.92
2024-04-22T05:15:58.174Z,-1.85
2024-04-22T05:18:24.919Z,-1.80
2024-04-22T05:20:53.033Z,-1.73
2024-04-22T05:23:20.104Z,-1.48
2024-04-22T05:25:47.662Z,-1.50
2024-04-22T05:28:16.643Z,-1.77
2024-04-22T05:30:43.571Z,-1.61
2024-04-22T05:33:30.734Z,-1.68
2024-04-22T05:36:13.963Z,-1.68
2024-04-22T05:38:44.481Z,-1.60
2024-04-22T05:41:12.643Z,-1.32
2024-04-22T05:43:39.732Z,-1.27
2024-04-22T05:46:25.763Z,-1.06
2024-04-22T05:48:53.374Z,-0.93
2024-04-22T05:51:20.174Z,-0.77
2024-04-22T05:53:47.344Z,-0.82
2024-04-22T05:56:14.168Z,-0.81
2024-04-22T05:58:40.979Z,-0.76
2024-04-22T06:01:07.781Z,-0.68
2024-04-22T06:03:35.108Z,-0.56
2024-04-22T06:06:01.953Z,-0.50
2024-04-22T06:08:29.121Z,-0.52
2024-04-22T06:10:56.377Z,-0.32
2024-04-22T06:13:23.233Z,-0.30
2024-04-22T06:15:50.434Z,-0.19
2024-04-22T06:18:20.405Z,-0.14
2024-04-22T06:20:47.399Z,-0.23
2024-04-22T06:23:15.031Z,-0.16
2024-04-22T06:25:49.362Z,-0.11
2024-04-22T06:28:16.847Z,0.03
2024-04-22T06:30:45.887Z,0.08
2024-04-22T06:33:12.652Z,0.06
2024-04-22T06:35:39.804Z,0.02
2024-04-22T06:38:09.183Z,0.07
2024-04-22T06:40:37.959Z,0.07
2024-04-22T06:43:07.097Z,0.15
2024-04-22T06:45:33.939Z,0.28
2024-04-22T06:48:00.876Z,0.24
2024-04-22T06:50:28.038Z,0.38
2024-04-22T06:52:54.844Z,0.60
2024-04-22T06:55:25.474Z,0.75
2024-04-22T06:57:53.035Z,0.92
2024-04-22T07:00:22.019Z,0.95
2024-04-22T07:02:49.790Z,1.13
2024-04-22T07:05:16.790Z,1.22
2024-04-22T07:07:45.813Z,1.34
2024-04-22T07:10:16.171Z,1.50
2024-04-22T07:12:45.337Z,1.64
2024-04-22T07:15:14.538Z,1.91
2024-04-22T07:17:45.325Z,2.27
2024-04-22T07:20:13.393Z,2.83
2024-04-22T07:22:45.364Z,2.91
2024-04-22T07:25:12.818Z,2.99
2024-04-22T07:27:40.231Z,4.32
2024-04-22T07:30:07.739Z,5.51
2024-04-22T07:32:35.556Z,6.40
2024-04-22T07:35:02.938Z,7.78
2024-04-22T07:37:41.195Z,4.87
2024-04-22T07:40:20.515Z,3.87
2024-04-22T07:42:48.929Z,3.69
2024-04-22T07:45:18.049Z,4.47
2024-04-22T07:47:46.209Z,5.01
2024-04-22T07:50:13.668Z,5.34
2024-04-22T07:52:41.817Z,6.82
2024-04-22T07:55:12.078Z,6.28
2024-04-22T07:57:43.197Z,4.93
2024-04-22T08:00:13.125Z,4.25
2024-04-22T08:02:41.352Z,3.68
2024-04-22T08:05:09.435Z,3.37
2024-04-22T08:07:42.580Z,3.38
2024-04-22T08:10:20.731Z,3.44
2024-04-22T08:12:47.999Z,3.43
2024-04-22T08:15:16.155Z,3.68
2024-04-22T08:17:43.720Z,3.86
2024-04-22T08:20:12.126Z,3.74
2024-04-22T08:22:39.378Z,4.00
2024-04-22T08:25:06.828Z,5.28
2024-04-22T08:27:34.669Z,5.03
2024-04-22T08:30:03.621Z,4.42
2024-04-22T08:32:31.537Z,4.32
2024-04-22T08:34:59.182Z,4.60
2024-04-22T08:37:26.196Z,4.47
2024-04-22T08:39:53.735Z,3.98
2024-04-22T08:42:25.283Z,3.80
2024-04-22T08:44:54.574Z,3.55
2024-04-22T08:47:22.601Z,3.04
2024-04-22T08:49:50.849Z,2.76
2024-04-22T08:52:30.035Z,2.66
2024-04-22T08:55:00.291Z,2.65
2024-04-22T08:57:27.166Z,2.59
2024-04-22T08:59:54.609Z,2.46
2024-04-22T09:02:22.671Z,2.61
2024-04-22T09:04:54.226Z,2.73
2024-04-22T09:08:19.917Z,2.78
2024-04-22T09:11:39.615Z,2.63
2024-04-22T09:14:03.273Z,2.47
2024-04-22T09:16:30.523Z,2.57
2024-04-22T09:19:04.169Z,2.46
2024-04-22T09:21:37.468Z,2.67
2024-04-22T09:24:08.407Z,2.61
2024-04-22T09:26:36.720Z,2.58
2024-04-22T09:29:05.601Z,2.76
2024-04-22T09:31:39.112Z,2.89
2024-04-22T09:34:19.799Z,2.98
2024-04-22T09:36:48.625Z,3.10
2024-04-22T09:39:18.842Z,3.41
2024-04-22T09:41:48.657Z,3.66
2024-04-22T09:44:19.117Z,3.47
2024-04-22T09:46:52.604Z,3.28
2024-04-22T09:49:20.722Z,3.04
2024-04-22T09:51:50.124Z,3.11
2024-04-22T09:54:23.188Z,3.23
2024-04-22T09:56:53.564Z,3.68
2024-04-22T09:59:22.218Z,3.69
2024-04-22T10:01:49.822Z,4.34
2024-04-22T10:04:17.229Z,4.74
2024-04-22T10:06:44.996Z,4.64
2024-04-22T10:09:18.366Z,4.54
2024-04-22T10:11:46.134Z,4.36
2024-04-22T10:14:18.358Z,4.06
2024-04-22T10:16:58.586Z,3.59
2024-04-22T10:19:31.146Z,3.36
2024-04-22T10:22:07.306Z,3.18
2024-04-22T10:24:49.462Z,4.04
2024-04-22T10:27:18.600Z,3.95
2024-04-22T10:29:47.042Z,3.78
2024-04-22T10:32:14.208Z,3.60
2024-04-22T10:34:47.760Z,3.15
2024-04-22T10:37:15.308Z,3.28
2024-04-22T10:39:44.709Z,3.27
2024-04-22T10:42:12.561Z,3.01
2024-04-22T10:44:45.261Z,3.00
2024-04-22T10:47:13.098Z,3.01
2024-04-22T10:49:42.271Z,2.99
2024-04-22T10:52:10.040Z,2.64
2024-04-22T10:54:36.793Z,2.38
2024-04-22T10:57:04.538Z,1.99
2024-04-22T10:59:31.860Z,1.61
2024-04-22T11:02:00.729Z,1.31
2024-04-22T11:04:29.484Z,1.17
2024-04-22T11:06:56.272Z,1.11
2024-04-22T11:09:26.319Z,1.08
2024-04-22T11:11:54.573Z,0.94
2024-04-22T11:14:21.901Z,0.84
2024-04-22T11:17:00.777Z,0.25
2024-04-22T11:19:30.970Z,-0.56
2024-04-22T11:22:00.067Z,-0.84
2024-04-22T11:24:27.849Z,-1.02
2024-04-22T11:26:56.043Z,-0.96
2024-04-22T11:29:29.756Z,-0.81
2024-04-22T11:32:00.270Z,-0.70
2024-04-22T11:34:30.977Z,-0.57
2024-04-22T11:36:58.648Z,-0.53
2024-04-22T11:39:35.284Z,-0.68
2024-04-22T11:42:06.335Z,-0.71
2024-04-22T11:44:47.324Z,-1.54
2024-04-22T11:47:16.623Z,-2.74
2024-04-22T11:49:47.008Z,-3.11
2024-04-22T11:52:14.936Z,-2.58
2024-04-22T11:54:42.001Z,-2.17
2024-04-22T11:57:09.045Z,-1.62
2024-04-22T11:59:36.088Z,-1.27
2024-04-22T12:02:03.754Z,-1.11
2024-04-22T12:04:31.478Z,-1.26
2024-04-22T12:06:58.514Z,-1.56
2024-04-22T12:09:25.885Z,-1.85
2024-04-22T12:14:41.323Z,-1.63
2024-04-22T12:17:08.792Z,-1.44
2024-04-22T12:19:36.299Z,-1.12
2024-04-22T12:22:03.342Z,-1.06
2024-04-22T12:24:30.357Z,-1.10
2024-04-22T12:27:01.503Z,-1.16
2024-04-22T12:29:30.536Z,-1.07
2024-04-22T12:32:00.632Z,-1.05
2024-04-22T12:34:31.108Z,-1.15
2024-04-22T12:37:01.532Z,-0.98
2024-04-22T12:39:28.852Z,-1.12
2024-04-22T12:41:56.515Z,-1.05
2024-04-22T12:44:30.527Z,-0.98
2024-04-22T12:47:17.764Z,-0.74
2024-04-22T12:50:07.683Z,-0.76
2024-04-22T12:52:34.653Z,-0.88
2024-04-22T12:55:05.652Z,-1.05
2024-04-22T12:57:36.318Z,-1.02
2024-04-22T13:00:10.098Z,-1.10
2024-04-22T13:02:37.324Z,-1.05
2024-04-22T13:05:05.078Z,-0.90
2024-04-22T13:07:43.757Z,-0.95
2024-04-22T13:10:16.013Z,-0.81
2024-04-22T13:12:43.147Z,-0.59
2024-04-22T13:15:10.087Z,-0.85
2024-04-22T13:17:38.792Z,-0.64
2024-04-22T13:20:06.786Z,-0.35
2024-04-22T13:22:34.471Z,-0.38
2024-04-22T13:25:05.147Z,-0.54
2024-04-22T13:27:35.592Z,-0.48
2024-04-22T13:30:09.515Z,-0.50
2024-04-22T13:32:38.248Z,-0.33
2024-04-22T13:35:06.350Z,-0.53
2024-04-22T13:37:33.485Z,-0.77
2024-04-22T13:40:02.269Z,-0.51
2024-04-22T13:42:32.343Z,-0.39
2024-04-22T13:45:02.882Z,-0.33
2024-04-22T13:47:30.253Z,-0.30
2024-04-22T13:49:57.390Z,-0.56
2024-04-22T13:52:25.661Z,-0.68
2024-04-22T13:54:52.720Z,-0.59
2024-04-22T13:57:19.678Z,-0.47
2024-04-22T13:59:46.827Z,-0.41
2024-04-22T14:02:14.742Z,-0.24
2024-04-22T14:04:45.842Z,-0.09
2024-04-22T14:07:17.315Z,0.06
2024-04-22T14:09:45.414Z,0.07
2024-04-22T14:12:12.153Z,-0.02
2024-04-22T14:14:40.739Z,0.10
2024-04-22T14:17:08.941Z,0.07
2024-04-22T14:19:36.417Z,0.00
2024-04-22T14:22:03.908Z,-0.04
2024-04-22T14:24:31.358Z,-0.52
2024-04-22T14:27:02.288Z,-0.46
2024-04-22T14:29:37.814Z,-0.05
2024-04-22T14:32:05.981Z,0.41
2024-04-22T14:34:45.503Z,0.27
2024-04-22T14:37:12.612Z,0.29
2024-04-22T14:39:40.024Z,0.40
2024-04-22T14:42:08.127Z,0.52
2024-04-22T14:44:41.163Z,0.61
2024-04-22T14:47:09.088Z,0.38
2024-04-22T14:49:36.545Z,0.34
2024-04-22T14:52:03.890Z,0.18
2024-04-22T14:54:31.339Z,0.18
2024-04-22T14:56:58.502Z,0.39
2024-04-22T14:59:25.497Z,0.15
2024-04-22T15:01:52.672Z,-0.02
2024-04-22T15:04:19.777Z,-0.19
2024-04-22T15:06:47.982Z,-0.29
2024-04-22T15:09:15.103Z,-0.50
2024-04-22T15:11:42.192Z,-0.52
2024-04-22T15:14:09.064Z,-0.53
2024-04-22T15:16:36.383Z,-0.74
2024-04-22T15:19:03.483Z,-0.82
2024-04-22T15:21:30.344Z,-0.87
2024-04-22T15:23:57.259Z,-1.07
2024-04-22T15:26:24.569Z,-1.23
2024-04-22T15:28:51.716Z,-1.26
2024-04-22T15:31:19.146Z,-1.30
2024-04-22T15:33:47.062Z,-1.04
2024-04-22T15:36:17.785Z,-0.89
2024-04-22T15:38:45.020Z,-0.93
2024-04-22T15:41:12.088Z,-0.77
2024-04-22T15:43:44.001Z,-0.72
2024-04-22T15:46:12.576Z,-0.67
2024-04-22T15:48:39.880Z,-0.72
2024-04-22T15:51:08.185Z,-0.64
2024-04-22T15:53:35.478Z,-0.57
2024-04-22T15:56:03.689Z,-0.47
2024-04-22T15:58:31.310Z,-0.50
2024-04-22T16:00:58.364Z,-0.38
2024-04-22T16:03:29.220Z,-0.24
2024-04-22T16:05:56.538Z,-0.31
2024-04-22T16:08:23.606Z,-0.17
2024-04-22T16:10:51.247Z,-0.17
2024-04-22T16:13:20.246Z,-0.14
2024-04-22T16:15:47.337Z,-0.19
2024-04-22T16:18:14.261Z,-0.06
2024-04-22T16:20:43.292Z,-0.02
2024-04-22T16:23:10.675Z,0.03
2024-04-22T16:25:37.505Z,0.11
2024-04-22T16:28:04.936Z,0.14
2024-04-22T16:30:32.262Z,0.24
2024-04-22T16:32:59.300Z,0.33
2024-04-22T16:35:29.212Z,0.30
2024-04-22T16:37:56.500Z,0.26
2024-04-22T16:40:23.507Z,0.27
2024-04-22T16:42:51.096Z,0.19
2024-04-22T16:45:18.848Z,0.14
2024-04-22T16:47:45.812Z,0.24
2024-04-22T16:50:12.613Z,0.29
2024-04-22T16:52:39.612Z,0.57
2024-04-22T16:55:07.108Z,0.44
2024-04-22T16:57:34.780Z,0.52
2024-04-22T17:00:01.543Z,0.60
2024-04-22T17:02:28.860Z,0.64
2024-04-22T17:04:57.596Z,0.71
2024-04-22T17:07:25.151Z,0.81
2024-04-22T17:09:52.715Z,1.03
2024-04-22T17:12:19.877Z,1.40
2024-04-22T17:14:46.921Z,1.69
2024-04-22T17:17:14.481Z,1.63
2024-04-22T17:19:41.639Z,1.96
2024-04-22T17:22:08.663Z,2.02
2024-04-22T17:24:36.204Z,2.19
2024-04-22T17:27:03.166Z,2.14
2024-04-22T17:29:30.657Z,2.09
2024-04-22T17:31:57.781Z,1.74
2024-04-22T17:34:25.412Z,1.57
2024-04-22T17:36:53.843Z,1.35
2024-04-22T17:39:20.640Z,1.26
2024-04-22T17:41:48.417Z,1.16
2024-04-22T17:44:15.170Z,1.03
2024-04-22T17:46:42.072Z,0.92
2024-04-22T17:49:11.651Z,0.86
2024-04-22T17:51:39.046Z,0.76
2024-04-22T17:54:06.102Z,0.77
2024-04-22T17:56:33.640Z,0.76
2024-04-22T17:59:00.763Z,0.71
2024-04-22T18:01:27.714Z,0.71
2024-04-22T18:03:54.967Z,0.62
2024-04-22T18:06:23.244Z,0.78
2024-04-22T18:08:50.208Z,0.70
2024-04-22T18:11:18.480Z,0.64
2024-04-22T18:13:45.675Z,0.65
2024-04-22T18:16:12.559Z,0.56
2024-04-22T18:18:39.333Z,0.58
2024-04-22T18:21:06.788Z,0.56
2024-04-22T18:23:33.672Z,0.64
2024-04-22T18:26:06.363Z,0.60
2024-04-22T18:28:40.476Z,0.52
2024-04-22T18:31:07.543Z,0.45
2024-04-22T18:33:34.532Z,0.35
2024-04-22T18:36:01.483Z,0.39
2024-04-22T18:38:29.005Z,0.39
2024-04-22T18:40:55.928Z,0.45
2024-04-22T18:43:23.057Z,0.45
2024-04-22T18:45:50.224Z,0.49
2024-04-22T18:48:17.174Z,0.44
2024-04-22T18:50:44.179Z,0.14
2024-04-22T18:53:12.072Z,-0.00
2024-04-22T18:55:39.733Z,-0.08
2024-04-22T18:58:07.313Z,-0.02
2024-04-22T19:00:35.314Z,0.17
2024-04-22T19:03:02.726Z,0.08
2024-04-22T19:05:29.868Z,0.14
2024-04-22T19:07:57.274Z,0.18
2024-04-22T19:10:24.307Z,0.22
2024-04-22T19:12:51.382Z,0.03
2024-04-22T19:15:18.234Z,0.00
2024-04-22T19:17:45.368Z,-0.10
2024-04-22T19:20:13.375Z,-0.05
2024-04-22T19:22:40.317Z,-0.09
2024-04-22T19:25:08.933Z,-0.01
2024-04-22T19:27:35.857Z,0.07
2024-04-22T19:30:03.764Z,0.19
2024-04-22T19:32:30.678Z,0.23
2024-04-22T19:34:57.656Z,0.19
2024-04-22T19:37:24.986Z,0.14
2024-04-22T19:39:52.124Z,0.26
2024-04-22T19:42:19.948Z,0.36
2024-04-22T19:44:56.989Z,0.42
2024-04-22T19:47:36.783Z,0.47
2024-04-22T19:50:14.676Z,0.19
2024-04-22T19:53:08.165Z,0.17
2024-04-22T19:55:40.228Z,0.15
2024-04-22T19:58:08.101Z,0.05
2024-04-22T20:00:37.834Z,0.03
2024-04-22T20:03:06.154Z,0.13
2024-04-22T20:05:36.410Z,0.11
2024-04-22T20:08:03.773Z,-0.01
2024-04-22T20:10:30.893Z,-0.07
2024-04-22T20:12:59.870Z,-0.06
2024-04-22T20:15:40.855Z,-0.07
2024-04-22T20:18:13.887Z,-0.16
2024-04-22T20:20:40.842Z,0.10
2024-04-22T20:23:09.339Z,0.10
2024-04-22T20:25:36.400Z,0.07
2024-04-22T20:28:04.444Z,-0.10
2024-04-22T20:30:31.999Z,-0.25
2024-04-22T20:33:01.151Z,-0.26
2024-04-22T20:35:28.430Z,-0.23
2024-04-22T20:37:56.681Z,-0.19
2024-04-22T20:40:25.025Z,-0.15
2024-04-22T20:42:52.323Z,0.10
2024-04-22T20:45:20.432Z,0.17
2024-04-22T20:47:48.697Z,0.23
2024-04-22T20:50:15.745Z,0.25
2024-04-22T20:52:47.372Z,0.16
2024-04-22T20:55:15.443Z,0.23
2024-04-22T20:57:42.313Z,0.19
2024-04-22T21:00:09.435Z,-0.15
2024-04-22T21:02:37.588Z,-0.32
2024-04-22T21:05:04.742Z,-0.39
2024-04-22T21:07:33.772Z,-0.46
2024-04-22T21:10:01.220Z,-0.37
2024-04-22T21:12:30.100Z,-0.38
2024-04-22T21:15:00.214Z,-0.48
2024-04-22T21:17:27.573Z,-0.45
2024-04-22T21:19:57.142Z,-0.68
2024-04-22T21:22:24.166Z,-0.73
2024-04-22T21:24:54.185Z,-0.76
2024-04-22T21:27:21.166Z,-0.80
2024-04-22T21:29:49.249Z,-0.88
2024-04-22T21:32:17.776Z,-0.97
2024-04-22T21:34:45.423Z,-0.98
2024-04-22T21:37:12.264Z,-0.86
2024-04-22T21:39:40.174Z,-0.91
2024-04-22T21:42:07.013Z,-1.00
2024-04-22T21:44:33.895Z,-1.01
2024-04-22T21:47:01.365Z,-1.15
2024-04-22T21:49:30.191Z,-0.98
2024-04-22T21:51:57.717Z,-0.91
2024-04-22T21:54:24.794Z,-0.82
2024-04-22T21:56:52.161Z,-0.92
2024-04-22T21:59:56.922Z,-1.13
2024-04-22T22:03:02.470Z,-1.15
2024-04-22T22:06:08.426Z,-1.28
2024-04-22T22:08:38.371Z,-1.26
2024-04-22T22:11:06.557Z,-1.27
2024-04-22T22:13:34.088Z,-1.37
2024-04-22T22:16:02.003Z,-1.34
2024-04-22T22:18:35.882Z,-1.48
2024-04-22T22:21:02.965Z,-1.35
2024-04-22T22:23:30.911Z,-1.52
2024-04-22T22:26:01.808Z,-1.29
2024-04-22T22:28:29.260Z,-1.18
2024-04-22T22:30:58.951Z,-1.26
2024-04-22T22:33:25.898Z,-1.27
2024-04-22T22:35:55.152Z,-1.30
2024-04-22T22:38:22.320Z,-1.15
2024-04-22T22:40:49.806Z,-1.17
2024-04-22T22:43:17.809Z,-1.20
2024-04-22T22:45:45.655Z,-1.14
2024-04-22T22:48:13.780Z,-1.20
2024-04-22T22:50:41.237Z,-1.28
2024-04-22T22:53:12.609Z,-1.39
2024-04-22T22:55:39.886Z,-1.42
2024-04-22T22:58:06.787Z,-1.48
2024-04-22T23:00:34.292Z,-1.51
2024-04-22T23:03:01.854Z,-1.41
2024-04-22T23:05:28.850Z,-1.37
2024-04-22T23:07:57.242Z,-1.40
2024-04-22T23:10:24.426Z,-1.53
2024-04-22T23:12:53.821Z,-1.68
2024-04-22T23:15:20.729Z,-1.84
2024-04-22T23:17:48.326Z,-1.72
2024-04-22T23:20:20.584Z,-1.54
2024-04-22T23:22:49.126Z,-1.55
2024-04-22T23:25:17.701Z,-1.59
2024-04-22T23:27:45.051Z,-1.95
2024-04-22T23:30:13.500Z,-1.77
2024-04-22T23:32:41.594Z,-1.74
2024-04-22T23:35:09.714Z,-1.76
2024-04-22T23:37:37.289Z,-1.84
2024-04-22T23:40:05.330Z,-1.75
2024-04-22T23:42:36.867Z,-1.66
2024-04-22T23:45:03.972Z,-1.92
2024-04-22T23:47:32.373Z,-2.16
2024-04-22T23:49:59.358Z,-2.34
2024-04-22T23:52:29.165Z,-2.39
2024-04-22T23:54:56.102Z,-2.22
2024-04-22T23:57:23.490Z,-2.15
2024-04-22T23:59:50.402Z,-2.17
